sensor_id;sensor_type;location;lat;lon;timestamp;pressure;altitude;pressure_sealevel;temperature;humidity
29907;BME280;16776;50.958;10.994;2023-04-03T00:01:31;99650.25;;;1.69;98.06
29907;BME280;16776;50.958;10.994;2023-04-03T00:03:58;99656.94;;;1.66;97.46
29907;BME280;16776;50.958;10.994;2023-04-03T00:06:25;99646.75;;;1.64;98.07
29907;BME280;16776;50.958;10.994;2023-04-03T00:08:52;99651.78;;;1.63;98.29
29907;BME280;16776;50.958;10.994;2023-04-03T00:11:19;99652.59;;;1.62;98.55
29907;BME280;16776;50.958;10.994;2023-04-03T00:13:47;99658.53;;;1.62;97.72
29907;BME280;16776;50.958;10.994;2023-04-03T00:16:13;99657.69;;;1.62;97.66
29907;BME280;16776;50.958;10.994;2023-04-03T00:18:41;99656.00;;;1.62;98.47
29907;BME280;16776;50.958;10.994;2023-04-03T00:21:12;99656.06;;;1.64;98.19
29907;BME280;16776;50.958;10.994;2023-04-03T00:23:39;99659.34;;;1.61;98.60
29907;BME280;16776;50.958;10.994;2023-04-03T00:26:05;99655.13;;;1.62;97.91
29907;BME280;16776;50.958;10.994;2023-04-03T00:28:32;99661.09;;;1.62;97.80
29907;BME280;16776;50.958;10.994;2023-04-03T00:30:58;99659.34;;;1.61;98.10
29907;BME280;16776;50.958;10.994;2023-04-03T00:33:25;99651.69;;;1.60;98.24
29907;BME280;16776;50.958;10.994;2023-04-03T00:35:53;99666.97;;;1.61;98.42
29907;BME280;16776;50.958;10.994;2023-04-03T00:38:20;99634.25;;;1.39;98.47
29907;BME280;16776;50.958;10.994;2023-04-03T00:40:47;99672.88;;;1.60;98.56
29907;BME280;16776;50.958;10.994;2023-04-03T00:43:16;99672.84;;;1.59;98.77
29907;BME280;16776;50.958;10.994;2023-04-03T00:45:45;99667.72;;;1.57;97.91
29907;BME280;16776;50.958;10.994;2023-04-03T00:48:16;99671.09;;;1.56;97.65
29907;BME280;16776;50.958;10.994;2023-04-03T00:50:43;99676.91;;;1.52;98.55
29907;BME280;16776;50.958;10.994;2023-04-03T00:53:15;99672.69;;;1.53;98.50
29907;BME280;16776;50.958;10.994;2023-04-03T00:55:43;99670.00;;;1.48;98.51
29907;BME280;16776;50.958;10.994;2023-04-03T00:58:11;99666.59;;;1.46;98.03
29907;BME280;16776;50.958;10.994;2023-04-03T01:00:40;99663.16;;;1.44;97.73
29907;BME280;16776;50.958;10.994;2023-04-03T01:03:09;99665.56;;;1.39;97.93
29907;BME280;16776;50.958;10.994;2023-04-03T01:05:36;99664.63;;;1.36;98.42
29907;BME280;16776;50.958;10.994;2023-04-03T01:08:02;99666.22;;;1.32;98.18
29907;BME280;16776;50.958;10.994;2023-04-03T01:10:31;99661.91;;;1.30;98.27
29907;BME280;16776;50.958;10.994;2023-04-03T01:12:59;99670.28;;;1.27;97.79
29907;BME280;16776;50.958;10.994;2023-04-03T01:15:27;99660.88;;;1.23;97.66
29907;BME280;16776;50.958;10.994;2023-04-03T01:17:56;99665.91;;;1.20;98.29
29907;BME280;16776;50.958;10.994;2023-04-03T01:20:45;99669.38;;;1.24;97.96
29907;BME280;16776;50.958;10.994;2023-04-03T01:23:52;99663.38;;;1.20;97.31
29907;BME280;16776;50.958;10.994;2023-04-03T01:26:23;99671.53;;;1.10;98.51
29907;BME280;16776;50.958;10.994;2023-04-03T01:28:53;99658.78;;;1.09;97.54
29907;BME280;16776;50.958;10.994;2023-04-03T01:31:23;99672.25;;;1.06;97.54
29907;BME280;16776;50.958;10.994;2023-04-03T01:33:52;99668.69;;;0.99;97.54
29907;BME280;16776;50.958;10.994;2023-04-03T01:36:20;99669.47;;;0.97;98.05
29907;BME280;16776;50.958;10.994;2023-04-03T01:38:47;99665.06;;;0.91;97.63
29907;BME280;16776;50.958;10.994;2023-04-03T01:41:14;99669.22;;;0.88;97.61
29907;BME280;16776;50.958;10.994;2023-04-03T01:43:41;99665.63;;;0.83;97.54
29907;BME280;16776;50.958;10.994;2023-04-03T01:46:08;99673.91;;;0.77;97.59
29907;BME280;16776;50.958;10.994;2023-04-03T01:48:37;99673.03;;;0.75;97.78
29907;BME280;16776;50.958;10.994;2023-04-03T01:51:05;99672.84;;;0.69;97.73
29907;BME280;16776;50.958;10.994;2023-04-03T01:53:32;99679.41;;;0.62;98.13
29907;BME280;16776;50.958;10.994;2023-04-03T01:55:58;99688.59;;;0.59;97.86
29907;BME280;16776;50.958;10.994;2023-04-03T01:58:25;99682.59;;;0.55;97.99
29907;BME280;16776;50.958;10.994;2023-04-03T02:00:52;99685.88;;;0.53;97.83
29907;BME280;16776;50.958;10.994;2023-04-03T02:03:19;99690.88;;;0.50;98.01
29907;BME280;16776;50.958;10.994;2023-04-03T02:05:46;99684.81;;;0.46;98.35
29907;BME280;16776;50.958;10.994;2023-04-03T02:08:14;99694.97;;;0.46;98.11
29907;BME280;16776;50.958;10.994;2023-04-03T02:10:43;99692.31;;;0.42;98.28
29907;BME280;16776;50.958;10.994;2023-04-03T02:13:09;99690.56;;;0.41;98.15
29907;BME280;16776;50.958;10.994;2023-04-03T02:15:40;99691.38;;;0.40;98.24
29907;BME280;16776;50.958;10.994;2023-04-03T02:18:07;99700.59;;;0.38;98.20
29907;BME280;16776;50.958;10.994;2023-04-03T02:20:33;99709.78;;;0.34;98.15
29907;BME280;16776;50.958;10.994;2023-04-03T02:23:00;99709.78;;;0.34;98.28
29907;BME280;16776;50.958;10.994;2023-04-03T02:25:30;99708.94;;;0.34;98.32
29907;BME280;16776;50.958;10.994;2023-04-03T02:28:00;99703.72;;;0.29;98.56
29907;BME280;16776;50.958;10.994;2023-04-03T02:30:27;99702.88;;;0.29;98.53
29907;BME280;16776;50.958;10.994;2023-04-03T02:32:53;99709.59;;;0.28;98.29
29907;BME280;16776;50.958;10.994;2023-04-03T02:35:20;99703.63;;;0.26;98.70
29907;BME280;16776;50.958;10.994;2023-04-03T02:37:48;99709.50;;;0.25;98.74
29907;BME280;16776;50.958;10.994;2023-04-03T02:40:14;99714.56;;;0.25;98.53
29907;BME280;16776;50.958;10.994;2023-04-03T02:42:42;99720.47;;;0.25;98.56
29907;BME280;16776;50.958;10.994;2023-04-03T02:45:09;99711.19;;;0.24;98.57
29907;BME280;16776;50.958;10.994;2023-04-03T02:47:36;99713.72;;;0.24;98.56
29907;BME280;16776;50.958;10.994;2023-04-03T02:50:03;99718.78;;;0.24;98.68
29907;BME280;16776;50.958;10.994;2023-04-03T02:52:29;99716.25;;;0.24;98.54
29907;BME280;16776;50.958;10.994;2023-04-03T02:54:58;99716.25;;;0.24;98.90
29907;BME280;16776;50.958;10.994;2023-04-03T02:57:24;99712.88;;;0.25;98.54
29907;BME280;16776;50.958;10.994;2023-04-03T02:59:52;99715.47;;;0.27;98.98
29907;BME280;16776;50.958;10.994;2023-04-03T03:02:18;99707.00;;;0.27;98.74
29907;BME280;16776;50.958;10.994;2023-04-03T03:04:45;99710.41;;;0.27;98.89
29907;BME280;16776;50.958;10.994;2023-04-03T03:07:12;99721.41;;;0.28;99.16
29907;BME280;16776;50.958;10.994;2023-04-03T03:09:38;99715.47;;;0.27;98.93
29907;BME280;16776;50.958;10.994;2023-04-03T03:12:05;99712.19;;;0.30;99.17
29907;BME280;16776;50.958;10.994;2023-04-03T03:14:31;99714.72;;;0.30;99.18
29907;BME280;16776;50.958;10.994;2023-04-03T03:16:59;99709.72;;;0.31;98.63
29907;BME280;16776;50.958;10.994;2023-04-03T03:19:26;99711.31;;;0.29;98.74
29907;BME280;16776;50.958;10.994;2023-04-03T03:21:52;99723.13;;;0.29;99.32
29907;BME280;16776;50.958;10.994;2023-04-03T03:24:19;99716.44;;;0.31;99.44
29907;BME280;16776;50.958;10.994;2023-04-03T03:26:45;99724.91;;;0.31;99.40
29907;BME280;16776;50.958;10.994;2023-04-03T03:29:12;99718.19;;;0.33;99.49
29907;BME280;16776;50.958;10.994;2023-04-03T03:31:38;99725.84;;;0.35;98.99
29907;BME280;16776;50.958;10.994;2023-04-03T03:34:06;99718.34;;;0.38;99.55
29907;BME280;16776;50.958;10.994;2023-04-03T03:36:33;99725.09;;;0.37;99.37
29907;BME280;16776;50.958;10.994;2023-04-03T03:38:59;99726.84;;;0.40;98.83
29907;BME280;16776;50.958;10.994;2023-04-03T03:41:26;99722.69;;;0.42;98.97
29907;BME280;16776;50.958;10.994;2023-04-03T03:43:53;99721.84;;;0.41;98.93
29907;BME280;16776;50.958;10.994;2023-04-03T03:46:19;99728.59;;;0.41;98.80
29907;BME280;16776;50.958;10.994;2023-04-03T03:48:46;99728.47;;;0.38;98.56
29907;BME280;16776;50.958;10.994;2023-04-03T03:51:14;99725.13;;;0.39;98.23
29907;BME280;16776;50.958;10.994;2023-04-03T03:53:40;99733.47;;;0.35;98.11
29907;BME280;16776;50.958;10.994;2023-04-03T03:56:07;99727.38;;;0.30;97.60
29907;BME280;16776;50.958;10.994;2023-04-03T03:58:34;99735.69;;;0.25;97.78
29907;BME280;16776;50.958;10.994;2023-04-03T04:01:04;99728.81;;;0.21;97.79
29907;BME280;16776;50.958;10.994;2023-04-03T04:03:33;99731.25;;;0.18;97.73
29907;BME280;16776;50.958;10.994;2023-04-03T04:06:00;99737.81;;;0.13;98.04
29907;BME280;16776;50.958;10.994;2023-04-03T04:08:28;99740.34;;;0.13;98.04
29907;BME280;16776;50.958;10.994;2023-04-03T04:10:55;99743.56;;;0.08;97.92
29907;BME280;16776;50.958;10.994;2023-04-03T04:13:24;99746.88;;;0.05;97.97
29907;BME280;16776;50.958;10.994;2023-04-03T04:15:50;99746.81;;;0.04;97.88
29907;BME280;16776;50.958;10.994;2023-04-03T04:18:17;99748.34;;;0.00;97.65
29907;BME280;16776;50.958;10.994;2023-04-03T04:20:45;99749.13;;;-0.02;97.87
29907;BME280;16776;50.958;10.994;2023-04-03T04:23:12;99747.28;;;-0.06;97.85
29907;BME280;16776;50.958;10.994;2023-04-03T04:25:40;99754.00;;;-0.08;97.52
29907;BME280;16776;50.958;10.994;2023-04-03T04:28:06;99752.22;;;-0.11;97.59
29907;BME280;16776;50.958;10.994;2023-04-03T04:30:33;99755.53;;;-0.12;99.50
29907;BME280;16776;50.958;10.994;2023-04-03T04:32:59;99751.94;;;0.05;100.00
29907;BME280;16776;50.958;10.994;2023-04-03T04:35:26;99762.38;;;0.41;100.00
29907;BME280;16776;50.958;10.994;2023-04-03T04:37:53;99761.97;;;0.83;100.00
29907;BME280;16776;50.958;10.994;2023-04-03T04:40:19;99769.75;;;1.16;100.00
29907;BME280;16776;50.958;10.994;2023-04-03T04:42:47;99759.44;;;1.38;100.00
29907;BME280;16776;50.958;10.994;2023-04-03T04:45:14;99760.50;;;1.46;100.00
29907;BME280;16776;50.958;10.994;2023-04-03T04:47:41;99762.13;;;1.44;98.77
29907;BME280;16776;50.958;10.994;2023-04-03T04:50:08;99763.69;;;1.39;98.62
29907;BME280;16776;50.958;10.994;2023-04-03T04:52:35;99763.41;;;1.30;97.79
29907;BME280;16776;50.958;10.994;2023-04-03T04:55:02;99768.19;;;1.19;97.30
29907;BME280;16776;50.958;10.994;2023-04-03T04:57:29;99764.44;;;1.07;97.73
29907;BME280;16776;50.958;10.994;2023-04-03T04:59:57;99769.22;;;0.97;97.23
29907;BME280;16776;50.958;10.994;2023-04-03T05:02:23;99770.44;;;0.83;97.26
29907;BME280;16776;50.958;10.994;2023-04-03T05:04:50;99778.53;;;0.72;96.77
29907;BME280;16776;50.958;10.994;2023-04-03T05:07:18;99779.91;;;0.60;97.18
29907;BME280;16776;50.958;10.994;2023-04-03T05:09:44;99779.50;;;0.48;97.27
29907;BME280;16776;50.958;10.994;2023-04-03T05:12:13;99785.13;;;0.40;97.20
29907;BME280;16776;50.958;10.994;2023-04-03T05:14:40;99784.00;;;0.30;97.65
29907;BME280;16776;50.958;10.994;2023-04-03T05:17:08;99788.00;;;0.23;97.25
29907;BME280;16776;50.958;10.994;2023-04-03T05:19:34;99791.88;;;0.14;97.37
29907;BME280;16776;50.958;10.994;2023-04-03T05:22:01;99782.41;;;0.08;97.36
29907;BME280;16776;50.958;10.994;2023-04-03T05:24:27;99779.66;;;0.02;97.52
29907;BME280;16776;50.958;10.994;2023-04-03T05:26:54;99788.84;;;-0.01;97.56
29907;BME280;16776;50.958;10.994;2023-04-03T05:29:20;99786.13;;;-0.06;97.66
29907;BME280;16776;50.958;10.994;2023-04-03T05:31:48;99789.47;;;-0.07;97.79
29907;BME280;16776;50.958;10.994;2023-04-03T05:34:18;99798.78;;;-0.07;97.39
29907;BME280;16776;50.958;10.994;2023-04-03T05:36:45;99797.72;;;-0.12;97.51
29907;BME280;16776;50.958;10.994;2023-04-03T05:39:11;99798.38;;;-0.18;97.60
29907;BME280;16776;50.958;10.994;2023-04-03T05:41:38;99793.22;;;-0.21;97.80
29907;BME280;16776;50.958;10.994;2023-04-03T05:44:05;99797.38;;;-0.23;97.65
29907;BME280;16776;50.958;10.994;2023-04-03T05:46:33;99793.03;;;-0.26;97.49
29907;BME280;16776;50.958;10.994;2023-04-03T05:49:00;99803.00;;;-0.30;97.59
29907;BME280;16776;50.958;10.994;2023-04-03T05:51:33;99805.53;;;-0.30;97.90
29907;BME280;16776;50.958;10.994;2023-04-03T05:54:04;99807.22;;;-0.31;98.03
29907;BME280;16776;50.958;10.994;2023-04-03T05:56:33;99797.59;;;-0.41;98.05
29907;BME280;16776;50.958;10.994;2023-04-03T05:58:59;99807.13;;;-0.34;98.13
29907;BME280;16776;50.958;10.994;2023-04-03T06:01:26;99807.97;;;-0.33;97.89
29907;BME280;16776;50.958;10.994;2023-04-03T06:03:53;99825.72;;;-0.32;98.07
29907;BME280;16776;50.958;10.994;2023-04-03T06:06:19;99824.88;;;-0.32;98.08
29907;BME280;16776;50.958;10.994;2023-04-03T06:08:48;99827.53;;;-0.29;98.06
29907;BME280;16776;50.958;10.994;2023-04-03T06:11:15;99812.63;;;-0.44;98.40
29907;BME280;16776;50.958;10.994;2023-04-03T06:13:41;99833.44;;;-0.29;98.19
29907;BME280;16776;50.958;10.994;2023-04-03T06:16:09;99827.53;;;-0.29;98.13
29907;BME280;16776;50.958;10.994;2023-04-03T06:18:39;99833.44;;;-0.29;98.53
29907;BME280;16776;50.958;10.994;2023-04-03T06:21:06;99835.34;;;-0.23;98.27
29907;BME280;16776;50.958;10.994;2023-04-03T06:23:33;99832.00;;;-0.22;98.35
29907;BME280;16776;50.958;10.994;2023-04-03T06:26:01;99836.19;;;-0.23;97.94
29907;BME280;16776;50.958;10.994;2023-04-03T06:28:27;99838.66;;;-0.24;97.79
29907;BME280;16776;50.958;10.994;2023-04-03T06:30:54;99840.41;;;-0.23;97.60
29907;BME280;16776;50.958;10.994;2023-04-03T06:33:20;99842.00;;;-0.25;97.68
29907;BME280;16776;50.958;10.994;2023-04-03T06:35:47;99851.25;;;-0.26;97.97
29907;BME280;16776;50.958;10.994;2023-04-03T06:38:13;99850.38;;;-0.26;97.80
29907;BME280;16776;50.958;10.994;2023-04-03T06:40:40;99858.00;;;-0.26;97.50
29907;BME280;16776;50.958;10.994;2023-04-03T06:43:08;99858.84;;;-0.26;97.76
29907;BME280;16776;50.958;10.994;2023-04-03T06:45:35;99846.97;;;-0.28;97.87
29907;BME280;16776;50.958;10.994;2023-04-03T06:48:01;99852.84;;;-0.29;97.75
29907;BME280;16776;50.958;10.994;2023-04-03T06:50:28;99857.09;;;-0.28;97.66
29907;BME280;16776;50.958;10.994;2023-04-03T06:52:56;99852.03;;;-0.28;97.53
29907;BME280;16776;50.958;10.994;2023-04-03T06:55:23;99861.22;;;-0.30;97.75
29907;BME280;16776;50.958;10.994;2023-04-03T06:57:49;99858.59;;;-0.33;97.79
29907;BME280;16776;50.958;10.994;2023-04-03T07:00:18;99864.69;;;-0.28;97.73
29907;BME280;16776;50.958;10.994;2023-04-03T07:02:45;99868.03;;;-0.29;97.77
29907;BME280;16776;50.958;10.994;2023-04-03T07:05:11;99871.47;;;-0.27;97.87
29907;BME280;16776;50.958;10.994;2023-04-03T07:07:38;99869.84;;;-0.25;97.96
29907;BME280;16776;50.958;10.994;2023-04-03T07:10:06;99875.03;;;-0.22;97.71
29907;BME280;16776;50.958;10.994;2023-04-03T07:12:33;99877.66;;;-0.19;97.87
29907;BME280;16776;50.958;10.994;2023-04-03T07:15:00;99874.38;;;-0.17;97.90
29907;BME280;16776;50.958;10.994;2023-04-03T07:17:28;99883.88;;;-0.11;98.03
29907;BME280;16776;50.958;10.994;2023-04-03T07:19:54;99875.47;;;-0.10;97.87
29907;BME280;16776;50.958;10.994;2023-04-03T07:22:21;99881.56;;;-0.05;98.01
29907;BME280;16776;50.958;10.994;2023-04-03T07:24:47;99880.03;;;0.00;97.94
29907;BME280;16776;50.958;10.994;2023-04-03T07:27:14;99879.38;;;0.06;98.04
29907;BME280;16776;50.958;10.994;2023-04-03T07:29:41;99887.09;;;0.09;98.11
29907;BME280;16776;50.958;10.994;2023-04-03T07:32:08;99886.53;;;0.16;97.85
29907;BME280;16776;50.958;10.994;2023-04-03T07:34:36;99896.81;;;0.20;97.56
29907;BME280;16776;50.958;10.994;2023-04-03T07:37:02;99901.06;;;0.21;97.50
29907;BME280;16776;50.958;10.994;2023-04-03T07:39:30;99907.91;;;0.24;97.46
29907;BME280;16776;50.958;10.994;2023-04-03T07:41:56;99904.63;;;0.27;97.23
29907;BME280;16776;50.958;10.994;2023-04-03T07:44:23;99908.06;;;0.29;96.86
29907;BME280;16776;50.958;10.994;2023-04-03T07:46:50;99909.81;;;0.30;96.74
29907;BME280;16776;50.958;10.994;2023-04-03T07:49:17;99909.00;;;0.31;97.06
29907;BME280;16776;50.958;10.994;2023-04-03T07:51:45;99916.69;;;0.34;96.35
29907;BME280;16776;50.958;10.994;2023-04-03T07:54:12;99917.50;;;0.33;96.80
29907;BME280;16776;50.958;10.994;2023-04-03T07:56:38;99914.22;;;0.35;96.97
29907;BME280;16776;50.958;10.994;2023-04-03T07:59:05;99915.22;;;0.40;97.39
29907;BME280;16776;50.958;10.994;2023-04-03T08:01:31;99918.84;;;0.47;97.48
29907;BME280;16776;50.958;10.994;2023-04-03T08:03:59;99917.38;;;0.53;97.37
29907;BME280;16776;50.958;10.994;2023-04-03T08:06:25;99923.50;;;0.60;96.66
29907;BME280;16776;50.958;10.994;2023-04-03T08:08:53;99924.53;;;0.65;96.55
29907;BME280;16776;50.958;10.994;2023-04-03T08:11:21;99931.31;;;0.66;96.50
29907;BME280;16776;50.958;10.994;2023-04-03T08:13:48;99925.44;;;0.67;96.27
29907;BME280;16776;50.958;10.994;2023-04-03T08:16:17;99929.78;;;0.71;97.01
29907;BME280;16776;50.958;10.994;2023-04-03T08:18:45;99928.28;;;0.76;96.99
29907;BME280;16776;50.958;10.994;2023-04-03T08:21:12;99922.66;;;0.85;98.02
29907;BME280;16776;50.958;10.994;2023-04-03T08:23:39;99916.88;;;0.87;97.44
29907;BME280;16776;50.958;10.994;2023-04-03T08:26:09;99926.94;;;1.11;97.74
29907;BME280;16776;50.958;10.994;2023-04-03T08:28:39;99929.91;;;1.25;98.65
29907;BME280;16776;50.958;10.994;2023-04-03T08:31:09;99926.34;;;1.47;97.96
29907;BME280;16776;50.958;10.994;2023-04-03T08:33:37;99926.13;;;1.67;97.99
29907;BME280;16776;50.958;10.994;2023-04-03T08:36:05;99912.91;;;1.79;97.17
29907;BME280;16776;50.958;10.994;2023-04-03T08:38:35;99915.91;;;1.94;96.28
29907;BME280;16776;50.958;10.994;2023-04-03T08:41:06;99925.59;;;2.07;95.96
29907;BME280;16776;50.958;10.994;2023-04-03T08:43:47;99919.13;;;2.18;97.04
29907;BME280;16776;50.958;10.994;2023-04-03T08:46:21;99922.84;;;2.31;96.70
29907;BME280;16776;50.958;10.994;2023-04-03T08:48:53;99922.56;;;2.52;97.59
29907;BME280;16776;50.958;10.994;2023-04-03T08:51:22;99927.41;;;2.74;97.87
29907;BME280;16776;50.958;10.994;2023-04-03T08:53:57;99917.88;;;3.00;96.59
29907;BME280;16776;50.958;10.994;2023-04-03T08:56:25;99918.38;;;3.21;97.05
29907;BME280;16776;50.958;10.994;2023-04-03T08:58:56;99923.03;;;3.37;96.29
29907;BME280;16776;50.958;10.994;2023-04-03T09:01:26;99911.63;;;3.59;95.66
29907;BME280;16776;50.958;10.994;2023-04-03T09:03:54;99909.47;;;3.77;94.82
29907;BME280;16776;50.958;10.994;2023-04-03T09:06:23;99918.34;;;3.95;95.05
29907;BME280;16776;50.958;10.994;2023-04-03T09:08:57;99916.19;;;4.14;95.47
29907;BME280;16776;50.958;10.994;2023-04-03T09:11:37;99917.41;;;4.35;94.58
29907;BME280;16776;50.958;10.994;2023-04-03T09:14:15;99915.97;;;4.49;94.30
29907;BME280;16776;50.958;10.994;2023-04-03T09:16:49;99913.53;;;4.55;93.72
29907;BME280;16776;50.958;10.994;2023-04-03T09:19:21;99916.19;;;4.61;93.40
29907;BME280;16776;50.958;10.994;2023-04-03T09:21:55;99911.09;;;4.59;93.25
29907;BME280;16776;50.958;10.994;2023-04-03T09:24:23;99916.16;;;4.58;92.41
29907;BME280;16776;50.958;10.994;2023-04-03T09:26:53;99916.94;;;4.55;92.12
29907;BME280;16776;50.958;10.994;2023-04-03T09:29:24;99921.09;;;4.49;92.03
29907;BME280;16776;50.958;10.994;2023-04-03T09:31:53;99914.19;;;4.43;91.95
29907;BME280;16776;50.958;10.994;2023-04-03T09:34:23;99908.94;;;4.36;92.11
29907;BME280;16776;50.958;10.994;2023-04-03T09:36:52;99910.63;;;4.35;92.80
29907;BME280;16776;50.958;10.994;2023-04-03T09:39:21;99914.09;;;4.39;92.97
29907;BME280;16776;50.958;10.994;2023-04-03T09:41:59;99922.78;;;4.47;92.58
29907;BME280;16776;50.958;10.994;2023-04-03T09:44:30;99918.41;;;4.43;92.17
29907;BME280;16776;50.958;10.994;2023-04-03T09:46:59;99914.91;;;4.36;92.08
29907;BME280;16776;50.958;10.994;2023-04-03T09:49:26;99916.59;;;4.36;91.40
29907;BME280;16776;50.958;10.994;2023-04-03T09:51:52;99917.38;;;4.32;90.77
29907;BME280;16776;50.958;10.994;2023-04-03T09:54:35;99910.63;;;4.34;91.00
29907;BME280;16776;50.958;10.994;2023-04-03T09:57:10;99903.69;;;4.27;91.28
29907;BME280;16776;50.958;10.994;2023-04-03T09:59:47;99909.63;;;4.27;91.31
29907;BME280;16776;50.958;10.994;2023-04-03T10:02:23;99905.38;;;4.26;90.29
29907;BME280;16776;50.958;10.994;2023-04-03T10:04:54;99911.06;;;4.13;90.70
29907;BME280;16776;50.958;10.994;2023-04-03T10:07:31;99903.53;;;4.19;90.77
29907;BME280;16776;50.958;10.994;2023-04-03T10:09:59;99912.13;;;4.24;91.61
29907;BME280;16776;50.958;10.994;2023-04-03T10:12:29;99903.84;;;4.34;91.85
29907;BME280;16776;50.958;10.994;2023-04-03T10:14:58;99902.41;;;4.50;90.26
29907;BME280;16776;50.958;10.994;2023-04-03T10:17:37;99903.47;;;4.62;91.29
29907;BME280;16776;50.958;10.994;2023-04-03T10:20:14;99901.00;;;4.67;89.99
29907;BME280;16776;50.958;10.994;2023-04-03T10:22:49;99896.84;;;4.74;89.43
29907;BME280;16776;50.958;10.994;2023-04-03T10:25:27;99901.19;;;4.78;89.19
29907;BME280;16776;50.958;10.994;2023-04-03T10:28:00;99893.47;;;4.75;88.57
29907;BME280;16776;50.958;10.994;2023-04-03T10:30:36;99890.91;;;4.73;88.88
29907;BME280;16776;50.958;10.994;2023-04-03T10:33:19;99894.28;;;4.71;88.55
29907;BME280;16776;50.958;10.994;2023-04-03T10:35:57;99881.38;;;4.63;88.88
29907;BME280;16776;50.958;10.994;2023-04-03T10:38:33;99879.72;;;4.65;89.02
29907;BME280;16776;50.958;10.994;2023-04-03T10:41:11;99878.91;;;4.66;89.39
29907;BME280;16776;50.958;10.994;2023-04-03T10:43:43;99889.09;;;4.68;89.38
29907;BME280;16776;50.958;10.994;2023-04-03T10:46:16;99890.03;;;4.71;89.48
29907;BME280;16776;50.958;10.994;2023-04-03T10:48:59;99890.13;;;4.77;89.54
29907;BME280;16776;50.958;10.994;2023-04-03T10:51:30;99889.31;;;4.80;90.53
29907;BME280;16776;50.958;10.994;2023-04-03T10:54:05;99883.38;;;4.81;88.70
29907;BME280;16776;50.958;10.994;2023-04-03T10:56:37;99874.09;;;4.84;88.99
29907;BME280;16776;50.958;10.994;2023-04-03T10:59:15;99880.13;;;4.89;88.12
29907;BME280;16776;50.958;10.994;2023-04-03T11:01:48;99877.53;;;4.88;88.83
29907;BME280;16776;50.958;10.994;2023-04-03T11:04:19;99880.94;;;4.88;88.24
29907;BME280;16776;50.958;10.994;2023-04-03T11:06:50;99879.22;;;4.87;88.42
29907;BME280;16776;50.958;10.994;2023-04-03T11:09:24;99880.91;;;4.85;88.51
29907;BME280;16776;50.958;10.994;2023-04-03T11:11:55;99854.44;;;4.79;88.44
29907;BME280;16776;50.958;10.994;2023-04-03T11:14:26;99875.94;;;4.94;88.51
29907;BME280;16776;50.958;10.994;2023-04-03T11:17:05;99869.38;;;5.12;88.71
29907;BME280;16776;50.958;10.994;2023-04-03T11:19:39;99862.78;;;5.21;88.92
29907;BME280;16776;50.958;10.994;2023-04-03T11:22:13;99864.69;;;5.36;88.54
29907;BME280;16776;50.958;10.994;2023-04-03T11:24:46;99845.34;;;5.53;88.56
29907;BME280;16776;50.958;10.994;2023-04-03T11:27:19;99849.75;;;5.66;88.28
29907;BME280;16776;50.958;10.994;2023-04-03T11:29:49;99850.81;;;5.80;88.35
29907;BME280;16776;50.958;10.994;2023-04-03T11:32:36;99847.59;;;6.01;87.76
29907;BME280;16776;50.958;10.994;2023-04-03T11:35:08;99846.84;;;6.10;88.09
29907;BME280;16776;50.958;10.994;2023-04-03T11:37:39;99834.19;;;6.19;87.27
29907;BME280;16776;50.958;10.994;2023-04-03T11:40:13;99836.00;;;6.34;86.99
29907;BME280;16776;50.958;10.994;2023-04-03T11:42:47;99836.06;;;6.40;86.33
29907;BME280;16776;50.958;10.994;2023-04-03T11:45:24;99846.31;;;6.40;86.13
29907;BME280;16776;50.958;10.994;2023-04-03T11:47:54;99845.44;;;6.36;86.76
29907;BME280;16776;50.958;10.994;2023-04-03T11:50:32;99849.66;;;6.34;86.74
29907;BME280;16776;50.958;10.994;2023-04-03T11:56:29;99837.63;;;6.22;86.24
29907;BME280;16776;50.958;10.994;2023-04-03T11:59:21;99837.56;;;6.16;87.00
29907;BME280;16776;50.958;10.994;2023-04-03T12:01:49;99824.63;;;6.03;85.29
29907;BME280;16776;50.958;10.994;2023-04-03T12:04:18;99822.09;;;6.06;86.26
29907;BME280;16776;50.958;10.994;2023-04-03T12:12:57;99808.75;;;6.33;86.17
29907;BME280;16776;50.958;10.994;2023-04-03T12:18:43;99812.25;;;6.44;84.80
29907;BME280;16776;50.958;10.994;2023-04-03T12:21:12;99818.97;;;6.34;85.44
29907;BME280;16776;50.958;10.994;2023-04-03T12:23:57;99809.56;;;6.33;87.09
29907;BME280;16776;50.958;10.994;2023-04-03T12:26:26;99812.84;;;6.17;85.55
29907;BME280;16776;50.958;10.994;2023-04-03T12:28:54;99808.50;;;6.10;85.30
29907;BME280;16776;50.958;10.994;2023-04-03T12:31:24;99812.72;;;6.05;85.28
29907;BME280;16776;50.958;10.994;2023-04-03T12:34:04;99807.59;;;6.05;86.71
29907;BME280;16776;50.958;10.994;2023-04-03T12:36:44;99809.25;;;6.00;86.32
29907;BME280;16776;50.958;10.994;2023-04-03T12:39:35;99802.44;;;6.00;86.11
29907;BME280;16776;50.958;10.994;2023-04-03T12:42:16;99796.41;;;5.95;86.16
29907;BME280;16776;50.958;10.994;2023-04-03T12:44:53;99783.66;;;5.98;86.41
29907;BME280;16776;50.958;10.994;2023-04-03T12:47:27;99767.44;;;5.93;85.26
29907;BME280;16776;50.958;10.994;2023-04-03T12:49:54;99783.75;;;6.09;86.62
29907;BME280;16776;50.958;10.994;2023-04-03T12:52:32;99765.91;;;6.15;85.22
29907;BME280;16776;50.958;10.994;2023-04-03T12:55:01;99778.81;;;6.24;85.73
29907;BME280;16776;50.958;10.994;2023-04-03T12:57:29;99754.91;;;6.22;86.03
29907;BME280;16776;50.958;10.994;2023-04-03T12:59:58;99758.38;;;6.29;86.02
29907;BME280;16776;50.958;10.994;2023-04-03T13:02:26;99775.59;;;6.48;85.34
29907;BME280;16776;50.958;10.994;2023-04-03T13:04:56;99770.53;;;6.55;84.95
29907;BME280;16776;50.958;10.994;2023-04-03T13:07:28;99760.34;;;6.61;84.99
29907;BME280;16776;50.958;10.994;2023-04-03T13:09:59;99759.50;;;6.65;84.98
29907;BME280;16776;50.958;10.994;2023-04-03T13:12:26;99771.47;;;6.68;83.87
29907;BME280;16776;50.958;10.994;2023-04-03T13:14:55;99764.66;;;6.69;83.94
29907;BME280;16776;50.958;10.994;2023-04-03T13:17:24;99754.34;;;6.58;83.82
29907;BME280;16776;50.958;10.994;2023-04-03T13:19:50;99775.69;;;6.60;83.82
29907;BME280;16776;50.958;10.994;2023-04-03T13:22:27;99778.25;;;6.58;82.96